Time;durP1;ratioP1;P1;durP2;ratioP2;P2;SDS_P1;SDS_P2;PMS_P1;PMS_P2;Temp;Humidity;BMP_temperature;BMP_pressure;BME280_temperature;BME280_humidity;BME280_pressure;Samples;Min_cycle;Max_cycle;Signal;HPM_P1;HPM_P2
2023/08/16 00:01:17;;;;;;;6.32;4.70;;;19.90;99.90;;;;;;5000499;28;20034;-67
2023/08/16 00:03:43;;;;;;;8.88;4.53;;;19.90;99.90;;;;;;5000813;28;20032;-67
2023/08/16 00:06:10;;;;;;;7.53;4.03;;;20.00;99.90;;;;;;5000834;28;20026;-67
2023/08/16 00:08:36;;;;;;;7.15;4.57;;;20.10;99.90;;;;;;5000336;28;20029;-67
2023/08/16 00:11:02;;;;;;;7.07;5.00;;;20.10;99.90;;;;;;5000340;28;20065;-67
2023/08/16 00:13:28;;;;;;;7.93;4.57;;;20.10;99.90;;;;;;5000829;28;20022;-67
2023/08/16 00:15:54;;;;;;;8.90;5.28;;;20.20;99.90;;;;;;5000274;28;20022;-67
2023/08/16 00:18:19;;;;;;;10.18;5.20;;;20.20;99.90;;;;;;4999918;28;20081;-67
2023/08/16 00:20:45;;;;;;;8.82;6.32;;;20.30;99.90;;;;;;5000960;28;20081;-67
2023/08/16 00:23:11;;;;;;;12.32;7.18;;;20.30;99.90;;;;;;5000933;28;20023;-67
2023/08/16 00:25:36;;;;;;;12.75;6.88;;;20.40;99.90;;;;;;5000719;28;20030;-67
2023/08/16 00:28:02;;;;;;;12.82;7.03;;;20.40;99.90;;;;;;4999753;28;20113;-67
2023/08/16 00:30:27;;;;;;;19.20;8.73;;;20.40;99.90;;;;;;5000640;28;20085;-67
2023/08/16 00:32:53;;;;;;;30.08;9.65;;;20.40;99.90;;;;;;4999772;28;20022;-67
2023/08/16 00:35:19;;;;;;;19.45;8.63;;;20.50;99.90;;;;;;5000320;28;20073;-67
2023/08/16 00:37:44;;;;;;;22.75;8.80;;;20.50;99.90;;;;;;4999502;28;20030;-67
2023/08/16 00:40:10;;;;;;;21.15;8.23;;;20.50;99.90;;;;;;5000672;28;20041;-67
2023/08/16 00:42:36;;;;;;;35.10;9.85;;;20.50;99.90;;;;;;4998738;28;20022;-67
2023/08/16 00:45:01;;;;;;;42.13;9.48;;;20.60;99.90;;;;;;5000465;28;20019;-67
2023/08/16 00:47:27;;;;;;;40.80;9.13;;;20.60;99.90;;;;;;4999743;28;20038;-67
2023/08/16 00:49:53;;;;;;;32.80;9.07;;;20.50;99.90;;;;;;5000062;28;20033;-67
2023/08/16 00:52:19;;;;;;;31.25;8.70;;;20.50;99.90;;;;;;4999785;28;20026;-67
2023/08/16 00:54:45;;;;;;;26.35;9.02;;;20.60;99.90;;;;;;5000171;28;20023;-67
2023/08/16 00:57:11;;;;;;;37.67;9.80;;;20.60;99.90;;;;;;4999337;28;20026;-67
2023/08/16 00:59:36;;;;;;;72.30;10.88;;;20.60;99.90;;;;;;4999233;28;20027;-67
2023/08/16 01:02:02;;;;;;;37.13;10.25;;;20.50;99.90;;;;;;4999340;28;20026;-67
2023/08/16 01:04:28;;;;;;;33.72;9.93;;;20.50;99.90;;;;;;4999020;28;20058;-67
2023/08/16 01:06:57;;;;;;;35.65;9.55;;;20.40;99.90;;;;;;4999050;28;20109;-67
2023/08/16 01:09:26;;;;;;;69.65;10.93;;;20.40;99.90;;;;;;4999104;28;20038;-67
2023/08/16 01:12:11;;;;;;;33.90;10.15;;;20.40;99.90;;;;;;4998890;28;20034;-67
2023/08/16 01:14:49;;;;;;;26.83;9.65;;;20.40;99.90;;;;;;4999585;28;20048;-67
2023/08/16 01:17:16;;;;;;;50.20;10.32;;;20.40;99.90;;;;;;4998787;28;20054;-67
2023/08/16 01:19:42;;;;;;;60.20;9.35;;;20.50;99.90;;;;;;4998660;28;20026;-67
2023/08/16 01:22:16;;;;;;;40.50;8.80;;;20.40;99.90;;;;;;4998667;28;20106;-67
2023/08/16 01:25:05;;;;;;;33.42;8.73;;;20.30;99.90;;;;;;4999543;28;20028;-67
2023/08/16 01:27:32;;;;;;;36.13;8.70;;;20.30;99.90;;;;;;4998655;28;20030;-67
2023/08/16 01:29:58;;;;;;;25.95;8.82;;;20.30;99.90;;;;;;4998702;28;20113;-67
2023/08/16 01:32:23;;;;;;;20.30;7.70;;;20.30;99.90;;;;;;4999256;28;20120;-67
2023/08/16 01:34:49;;;;;;;20.48;7.57;;;20.40;99.90;;;;;;4999258;28;20033;-67
2023/08/16 01:37:14;;;;;;;31.75;8.27;;;20.40;99.90;;;;;;4998466;28;20113;-67
2023/08/16 01:39:40;;;;;;;18.60;7.57;;;20.50;99.90;;;;;;4999003;28;20023;-67
2023/08/16 01:42:13;;;;;;;29.13;9.13;;;20.50;99.90;;;;;;4998734;28;20037;-67
2023/08/16 01:44:39;;;;;;;20.02;8.07;;;20.50;99.90;;;;;;4999101;28;20022;-67
2023/08/16 01:47:06;;;;;;;26.77;9.68;;;20.50;99.90;;;;;;4998283;28;20018;-67
2023/08/16 01:49:32;;;;;;;23.80;8.55;;;20.50;99.90;;;;;;4998526;28;20033;-67
2023/08/16 01:51:59;;;;;;;24.80;8.10;;;20.40;99.90;;;;;;4998146;28;20064;-67
2023/08/16 01:54:24;;;;;;;22.58;8.18;;;20.50;99.90;;;;;;4998563;28;20026;-67
2023/08/16 01:56:50;;;;;;;24.38;9.13;;;20.40;99.90;;;;;;4998661;28;20050;-67
2023/08/16 01:59:15;;;;;;;19.63;8.00;;;20.50;99.90;;;;;;4998351;28;20045;-67
2023/08/16 02:01:41;;;;;;;23.52;8.43;;;20.40;99.90;;;;;;4997755;28;20030;-67
2023/08/16 02:04:06;;;;;;;26.95;8.55;;;20.40;99.90;;;;;;4998407;28;20022;-67
2023/08/16 02:06:32;;;;;;;19.90;8.32;;;20.40;99.90;;;;;;4998108;28;20023;-67
2023/08/16 02:08:57;;;;;;;27.05;8.65;;;20.40;99.90;;;;;;4997934;28;20015;-67
2023/08/16 02:11:23;;;;;;;27.38;8.68;;;20.40;99.90;;;;;;4998178;28;20026;-67
2023/08/16 02:13:49;;;;;;;18.20;8.65;;;20.40;99.90;;;;;;4998043;28;20026;-67
2023/08/16 02:16:14;;;;;;;26.42;8.80;;;20.40;99.90;;;;;;4997771;28;20026;-67
2023/08/16 02:18:40;;;;;;;17.65;6.88;;;20.40;99.90;;;;;;4997847;28;20077;-67
2023/08/16 02:21:06;;;;;;;25.33;7.55;;;20.30;99.90;;;;;;4997919;28;20080;-67
2023/08/16 02:23:31;;;;;;;19.38;8.30;;;20.30;99.90;;;;;;4997696;28;20022;-67
2023/08/16 02:25:57;;;;;;;25.95;7.82;;;20.20;99.90;;;;;;4997939;28;20018;-67
2023/08/16 02:28:22;;;;;;;16.15;6.72;;;20.30;99.90;;;;;;4997799;28;20030;-67
2023/08/16 02:30:48;;;;;;;20.67;7.47;;;20.30;99.90;;;;;;4997955;28;20026;-67
2023/08/16 02:33:13;;;;;;;14.55;6.82;;;20.30;99.90;;;;;;4997947;28;20038;-67
2023/08/16 02:35:39;;;;;;;17.63;7.10;;;20.30;99.90;;;;;;4998272;28;20022;-67
2023/08/16 02:38:04;;;;;;;15.70;6.75;;;20.30;99.90;;;;;;5028883;23;20038;-66
2023/08/16 02:40:30;;;;;;;28.67;7.68;;;20.30;99.90;;;;;;5017146;28;20160;-66
2023/08/16 02:42:55;;;;;;;25.08;7.72;;;20.30;99.90;;;;;;5017671;28;20026;-66
2023/08/16 02:45:21;;;;;;;26.25;8.13;;;20.30;99.90;;;;;;5017986;28;20018;-65
2023/08/16 02:47:47;;;;;;;31.40;7.80;;;20.30;99.90;;;;;;5016971;28;20018;-66
2023/08/16 02:50:13;;;;;;;23.65;7.32;;;20.10;99.90;;;;;;5016770;28;20029;-66
2023/08/16 02:52:39;;;;;;;27.88;7.32;;;20.10;99.90;;;;;;5016821;28;20022;-66
2023/08/16 02:55:04;;;;;;;33.67;8.60;;;20.00;99.90;;;;;;5016650;28;20034;-66
2023/08/16 02:57:30;;;;;;;26.85;8.15;;;20.00;99.90;;;;;;5016571;28;20032;-66
2023/08/16 02:59:55;;;;;;;33.42;7.97;;;20.00;99.90;;;;;;5016871;28;20034;-66
2023/08/16 03:02:21;;;;;;;34.50;7.60;;;20.10;99.90;;;;;;5016535;28;20029;-66
2023/08/16 03:04:47;;;;;;;20.65;7.10;;;20.10;99.90;;;;;;5016826;28;20022;-66
2023/08/16 03:07:12;;;;;;;23.75;7.88;;;20.10;99.90;;;;;;5016492;28;20071;-66
2023/08/16 03:09:38;;;;;;;21.60;7.22;;;20.10;99.90;;;;;;5017336;28;20022;-66
2023/08/16 03:12:05;;;;;;;29.95;7.85;;;20.10;99.90;;;;;;5016944;28;20120;-66
2023/08/16 03:14:31;;;;;;;32.38;7.35;;;20.20;99.90;;;;;;5016713;28;20037;-66
2023/08/16 03:16:57;;;;;;;31.13;8.43;;;20.20;99.90;;;;;;5016449;28;20084;-66
2023/08/16 03:19:23;;;;;;;20.92;8.13;;;20.10;99.90;;;;;;5017216;28;20030;-66
2023/08/16 03:21:49;;;;;;;31.20;7.65;;;20.20;99.90;;;;;;5016543;28;20053;-66
2023/08/16 03:24:15;;;;;;;28.35;8.57;;;20.20;99.90;;;;;;5017223;28;20105;-66
2023/08/16 03:26:40;;;;;;;24.38;7.82;;;20.20;99.90;;;;;;5017307;28;20022;-66
2023/08/16 03:29:06;;;;;;;30.88;8.38;;;20.20;99.90;;;;;;5017101;28;20053;-66
2023/08/16 03:31:31;;;;;;;25.02;8.50;;;20.20;99.90;;;;;;5016453;28;20022;-66
2023/08/16 03:33:57;;;;;;;28.40;8.10;;;20.30;99.90;;;;;;5017110;28;20030;-66
2023/08/16 03:36:23;;;;;;;25.42;8.30;;;20.30;99.90;;;;;;5017294;28;20037;-66
2023/08/16 03:38:49;;;;;;;33.65;8.27;;;20.20;99.90;;;;;;5016194;28;20066;-66
2023/08/16 03:41:14;;;;;;;22.70;7.90;;;20.20;99.90;;;;;;5016509;28;20018;-66
2023/08/16 03:43:40;;;;;;;28.92;8.13;;;20.30;99.90;;;;;;5016172;28;20022;-66
2023/08/16 03:46:07;;;;;;;31.30;7.65;;;20.30;99.90;;;;;;5016266;28;20028;-66
2023/08/16 03:48:33;;;;;;;34.97;7.45;;;20.20;99.90;;;;;;5016172;28;20029;-66
2023/08/16 03:50:59;;;;;;;33.72;8.00;;;20.10;99.90;;;;;;5016298;28;20029;-66
2023/08/16 03:53:24;;;;;;;29.50;7.80;;;20.10;99.90;;;;;;5016124;28;20026;-66
2023/08/16 03:55:56;;;;;;;27.88;8.35;;;20.20;99.90;;;;;;5016066;28;20049;-66
2023/08/16 03:58:22;;;;;;;37.85;9.95;;;20.20;99.90;;;;;;5016674;28;20037;-66
2023/08/16 04:00:48;;;;;;;29.77;7.55;;;20.20;99.90;;;;;;5016759;28;20026;-66
2023/08/16 04:03:13;;;;;;;33.13;7.90;;;20.20;99.90;;;;;;5016211;28;20022;-66
2023/08/16 04:05:39;;;;;;;27.48;8.35;;;20.30;99.90;;;;;;5016025;28;20033;-66
2023/08/16 04:08:05;;;;;;;30.45;9.40;;;20.20;99.90;;;;;;5015852;28;20022;-66
2023/08/16 04:10:30;;;;;;;22.83;8.35;;;20.20;99.90;;;;;;5016745;28;20062;-66
2023/08/16 04:12:56;;;;;;;29.00;7.38;;;20.20;99.90;;;;;;5015881;28;20038;-66
2023/08/16 04:15:21;;;;;;;31.42;8.40;;;20.20;99.90;;;;;;5016090;28;20050;-66
2023/08/16 04:17:47;;;;;;;34.35;8.43;;;20.10;99.90;;;;;;5019509;28;20028;-66
2023/08/16 04:20:13;;;;;;;35.78;8.60;;;20.20;99.90;;;;;;5020319;28;20085;-66
2023/08/16 04:22:38;;;;;;;28.92;7.57;;;20.30;99.90;;;;;;5019791;28;20030;-66
2023/08/16 04:25:04;;;;;;;28.15;7.90;;;20.30;99.90;;;;;;5019707;28;20025;-66
2023/08/16 04:27:30;;;;;;;35.67;8.60;;;20.30;99.90;;;;;;5020212;28;20057;-66
2023/08/16 04:29:55;;;;;;;30.80;9.13;;;20.30;99.90;;;;;;5020474;28;20030;-66
2023/08/16 04:32:21;;;;;;;27.33;8.18;;;20.30;99.90;;;;;;5019766;28;20034;-66
2023/08/16 04:34:46;;;;;;;26.05;7.28;;;20.30;99.90;;;;;;5019664;28;20039;-66
2023/08/16 04:37:12;;;;;;;30.50;8.13;;;20.30;99.90;;;;;;5019471;28;20156;-66
2023/08/16 04:39:37;;;;;;;20.80;6.88;;;20.40;99.90;;;;;;5019930;28;20030;-66
2023/08/16 04:42:03;;;;;;;21.08;7.22;;;20.40;99.90;;;;;;5018958;28;20089;-66
2023/08/16 04:44:29;;;;;;;24.50;7.47;;;20.40;99.90;;;;;;5020274;28;20026;-66
2023/08/16 04:46:54;;;;;;;25.63;8.48;;;20.50;99.90;;;;;;5019002;28;20026;-66
2023/08/16 04:49:20;;;;;;;24.25;8.02;;;20.50;99.90;;;;;;5018824;28;20072;-66
2023/08/16 04:51:45;;;;;;;22.50;7.78;;;20.50;99.90;;;;;;5019007;28;20026;-66
2023/08/16 04:54:11;;;;;;;24.67;9.13;;;20.50;99.90;;;;;;5018960;28;20021;-66
2023/08/16 04:56:36;;;;;;;21.35;7.25;;;20.40;99.90;;;;;;5019178;28;20049;-66
2023/08/16 04:59:02;;;;;;;26.25;8.15;;;20.40;99.90;;;;;;5018751;28;20026;-66
2023/08/16 05:01:28;;;;;;;18.45;6.82;;;20.40;99.90;;;;;;5018669;28;20116;-66
2023/08/16 05:03:53;;;;;;;20.27;7.70;;;20.40;99.90;;;;;;5019937;28;20076;-66
2023/08/16 05:06:19;;;;;;;18.83;6.95;;;20.50;99.90;;;;;;5019455;28;20022;-66
2023/08/16 05:08:45;;;;;;;14.70;6.32;;;20.50;99.90;;;;;;5018534;28;20065;-66
2023/08/16 05:11:10;;;;;;;16.38;7.32;;;20.50;99.90;;;;;;5019327;28;20021;-66
2023/08/16 05:13:36;;;;;;;15.05;6.68;;;20.50;99.90;;;;;;5018506;28;20105;-66
2023/08/16 05:16:02;;;;;;;14.45;6.40;;;20.50;99.90;;;;;;5018383;28;20110;-66
2023/08/16 05:18:27;;;;;;;10.77;6.22;;;20.60;99.90;;;;;;5019079;28;20036;-66
2023/08/16 05:20:56;;;;;;;14.65;6.15;;;20.60;99.90;;;;;;5019184;28;20052;-66
2023/08/16 05:23:22;;;;;;;14.00;6.90;;;20.70;99.90;;;;;;5018281;28;20022;-66
2023/08/16 05:25:48;;;;;;;15.75;7.43;;;20.70;99.90;;;;;;5018400;28;20044;-66
2023/08/16 05:28:14;;;;;;;16.17;6.30;;;20.70;99.90;;;;;;5017423;28;20030;-66
2023/08/16 05:30:39;;;;;;;14.95;7.50;;;20.70;99.90;;;;;;5018265;28;20026;-66
2023/08/16 05:33:05;;;;;;;16.20;7.85;;;20.80;99.90;;;;;;5018395;28;20026;-66
2023/08/16 05:35:34;;;;;;;14.63;7.07;;;20.70;99.90;;;;;;5018990;28;20029;-66
2023/08/16 05:38:00;;;;;;;17.10;7.65;;;20.70;99.90;;;;;;5019204;28;20037;-66
2023/08/16 05:40:26;;;;;;;21.27;8.63;;;20.80;99.90;;;;;;5017942;28;20056;-66
2023/08/16 05:42:51;;;;;;;19.17;7.43;;;20.80;99.90;;;;;;5018330;28;20117;-66
2023/08/16 05:45:17;;;;;;;16.75;7.50;;;20.80;99.90;;;;;;5018298;28;20017;-66
2023/08/16 05:47:42;;;;;;;11.63;7.28;;;20.80;99.90;;;;;;5018895;28;20022;-66
2023/08/16 05:50:09;;;;;;;11.73;7.15;;;20.70;99.90;;;;;;5017849;28;20022;-66
2023/08/16 05:52:34;;;;;;;12.88;7.60;;;20.70;99.90;;;;;;5017776;28;20022;-66
2023/08/16 05:55:00;;;;;;;13.65;7.45;;;20.60;99.90;;;;;;5017873;28;20025;-66
2023/08/16 05:57:25;;;;;;;13.10;7.63;;;20.60;99.90;;;;;;5017557;28;20026;-66
2023/08/16 05:59:51;;;;;;;14.50;7.40;;;20.60;99.90;;;;;;5018636;28;20061;-66
2023/08/16 06:02:17;;;;;;;15.00;7.68;;;20.70;99.90;;;;;;5018496;28;20105;-66
2023/08/16 06:04:42;;;;;;;12.30;7.22;;;20.60;99.90;;;;;;5018360;28;20018;-66
2023/08/16 06:07:08;;;;;;;13.77;7.47;;;20.70;99.90;;;;;;5017488;28;20109;-66
2023/08/16 06:09:34;;;;;;;12.95;7.25;;;20.70;99.90;;;;;;5018712;28;20025;-68
2023/08/16 06:12:00;;;;;;;11.43;7.15;;;20.80;99.90;;;;;;5017836;28;20113;-68
2023/08/16 06:14:25;;;;;;;10.77;6.50;;;20.80;99.90;;;;;;5017455;28;20049;-68
2023/08/16 06:16:51;;;;;;;11.90;6.97;;;20.80;99.90;;;;;;5018461;28;20033;-68
2023/08/16 06:19:16;;;;;;;10.18;6.78;;;20.90;99.90;;;;;;5017299;28;20041;-68
2023/08/16 06:21:42;;;;;;;11.98;5.53;;;20.90;99.90;;;;;;5018569;28;20030;-68
2023/08/16 06:24:11;;;;;;;7.50;5.53;;;20.90;99.90;;;;;;5017237;28;20056;-68
2023/08/16 06:26:36;;;;;;;12.02;5.45;;;20.90;99.90;;;;;;5018200;28;20085;-68
2023/08/16 06:29:02;;;;;;;11.05;5.22;;;20.90;99.90;;;;;;5017016;28;20156;-68
2023/08/16 06:31:28;;;;;;;9.30;5.20;;;20.90;99.90;;;;;;5017088;28;20061;-68
2023/08/16 06:33:53;;;;;;;8.00;5.43;;;20.90;99.90;;;;;;5017263;28;20025;-68
2023/08/16 06:36:19;;;;;;;8.50;5.50;;;20.90;99.90;;;;;;5017102;28;20025;-68
2023/08/16 06:38:45;;;;;;;7.20;4.70;;;20.80;99.90;;;;;;5016827;28;20060;-68
2023/08/16 06:41:11;;;;;;;7.32;4.63;;;20.80;99.90;;;;;;5017279;28;20051;-68
2023/08/16 06:43:36;;;;;;;8.50;5.40;;;20.80;99.90;;;;;;5016952;28;20045;-68
2023/08/16 06:46:02;;;;;;;9.05;5.70;;;20.90;99.90;;;;;;5017994;28;20101;-68
2023/08/16 06:48:27;;;;;;;10.50;5.97;;;20.80;99.90;;;;;;5017134;28;20022;-68
2023/08/16 06:50:54;;;;;;;15.30;8.75;;;20.90;99.90;;;;;;5016799;28;20034;-68
2023/08/16 06:53:20;;;;;;;16.27;9.63;;;21.00;99.90;;;;;;5017411;28;20022;-68
2023/08/16 06:55:46;;;;;;;13.60;8.18;;;21.00;99.90;;;;;;5017484;28;20037;-68
2023/08/16 06:58:11;;;;;;;15.43;8.50;;;21.00;99.90;;;;;;5017040;28;20112;-68
2023/08/16 07:00:37;;;;;;;14.32;8.30;;;21.00;99.90;;;;;;5016866;28;20117;-68
2023/08/16 07:03:03;;;;;;;15.90;8.93;;;21.00;99.90;;;;;;5016585;28;20017;-68
2023/08/16 07:05:29;;;;;;;15.77;8.80;;;21.00;99.90;;;;;;5016579;28;20022;-68
2023/08/16 07:07:55;;;;;;;15.32;8.55;;;21.10;99.90;;;;;;5017526;28;20061;-68
2023/08/16 07:10:21;;;;;;;21.05;9.13;;;21.10;99.90;;;;;;5016557;28;20050;-68
2023/08/16 07:12:46;;;;;;;15.15;8.55;;;21.10;99.90;;;;;;5016723;28;20080;-68
2023/08/16 07:15:12;;;;;;;11.57;6.97;;;21.10;99.90;;;;;;5017366;28;20026;-68
2023/08/16 07:17:40;;;;;;;13.10;7.53;;;21.20;99.90;;;;;;5016297;28;20057;-68
2023/08/16 07:20:10;;;;;;;15.57;7.28;;;21.30;99.90;;;;;;5017403;28;20026;-68
2023/08/16 07:22:38;;;;;;;12.75;7.68;;;21.30;99.90;;;;;;5016240;28;20022;-68
2023/08/16 07:25:05;;;;;;;11.68;7.53;;;21.30;99.90;;;;;;5017214;28;20022;-68
2023/08/16 07:27:31;;;;;;;13.63;7.45;;;21.20;99.90;;;;;;5016752;28;20076;-68
2023/08/16 07:29:57;;;;;;;12.05;7.35;;;21.30;99.90;;;;;;5016564;28;20050;-68
2023/08/16 07:32:23;;;;;;;13.57;7.03;;;21.30;99.90;;;;;;5017095;28;20029;-68
2023/08/16 07:34:48;;;;;;;11.38;6.75;;;21.30;99.90;;;;;;5016245;28;20025;-68
2023/08/16 07:37:14;;;;;;;10.50;6.93;;;21.30;99.90;;;;;;5017209;28;20032;-68
2023/08/16 07:39:40;;;;;;;11.30;7.07;;;21.30;99.90;;;;;;5016264;28;20030;-68
2023/08/16 07:42:07;;;;;;;12.45;6.55;;;21.30;99.90;;;;;;5017005;28;20026;-68
2023/08/16 07:44:36;;;;;;;16.30;6.90;;;21.40;99.90;;;;;;5016318;28;20080;-69
2023/08/16 07:47:02;;;;;;;8.75;6.50;;;21.40;99.90;;;;;;5016430;28;20033;-68
2023/08/16 07:49:28;;;;;;;10.50;6.07;;;21.40;99.90;;;;;;5016078;28;20156;-68
2023/08/16 07:51:55;;;;;;;8.88;6.28;;;21.40;99.90;;;;;;5018559;28;20042;-67
2023/08/16 07:54:21;;;;;;;11.90;6.18;;;21.50;99.90;;;;;;5020971;28;20025;-68
2023/08/16 07:56:47;;;;;;;9.23;6.43;;;21.60;99.90;;;;;;5020000;28;20117;-68
2023/08/16 07:59:13;;;;;;;9.57;5.78;;;21.70;99.90;;;;;;5019959;28;20046;-68
2023/08/16 08:01:39;;;;;;;10.20;7.45;;;21.70;99.90;;;;;;5020493;28;20064;-67
2023/08/16 08:04:05;;;;;;;9.60;6.20;;;21.70;99.90;;;;;;5020707;28;20022;-67
2023/08/16 08:06:30;;;;;;;9.93;6.03;;;21.80;99.90;;;;;;5020143;28;20018;-67
2023/08/16 08:08:56;;;;;;;9.93;6.53;;;21.90;99.90;;;;;;5019722;28;20029;-67
2023/08/16 08:11:21;;;;;;;10.35;6.30;;;22.00;99.90;;;;;;5021221;28;20076;-67
2023/08/16 08:13:47;;;;;;;10.60;6.50;;;22.00;99.90;;;;;;5019792;28;20037;-67
2023/08/16 08:16:13;;;;;;;8.73;6.03;;;22.10;99.90;;;;;;5019665;28;20030;-67
2023/08/16 08:18:38;;;;;;;11.35;6.43;;;22.10;99.90;;;;;;5019632;28;20080;-67
2023/08/16 08:21:04;;;;;;;10.98;6.30;;;22.10;99.90;;;;;;5020428;28;20026;-67
2023/08/16 08:23:29;;;;;;;11.38;7.43;;;22.10;99.90;;;;;;5019940;28;20026;-67
2023/08/16 08:25:55;;;;;;;12.60;7.57;;;22.10;99.90;;;;;;5020873;28;20064;-67
2023/08/16 08:28:22;;;;;;;13.10;6.97;;;22.10;99.90;;;;;;5019702;28;20026;-67
2023/08/16 08:30:48;;;;;;;9.10;6.57;;;22.10;99.90;;;;;;5019625;28;20049;-67
2023/08/16 08:33:13;;;;;;;8.43;5.32;;;22.10;99.90;;;;;;5019778;28;20033;-67
2023/08/16 08:35:39;;;;;;;7.97;5.50;;;22.20;99.90;;;;;;5019295;28;20021;-67
2023/08/16 08:38:04;;;;;;;7.35;5.15;;;22.10;99.90;;;;;;5019566;28;20034;-68
2023/08/16 08:40:31;;;;;;;6.80;5.03;;;22.10;99.90;;;;;;5019365;28;20030;-68
2023/08/16 08:42:59;;;;;;;6.15;4.97;;;22.10;99.90;;;;;;5019947;28;20021;-68
2023/08/16 08:45:26;;;;;;;7.60;5.25;;;22.10;99.90;;;;;;5019856;28;20044;-68
2023/08/16 08:47:55;;;;;;;7.32;4.38;;;22.20;99.90;;;;;;5019339;28;20022;-68
2023/08/16 08:50:20;;;;;;;7.43;4.80;;;22.30;99.90;;;;;;5019521;28;20060;-68
2023/08/16 08:52:51;;;;;;;7.60;5.15;;;22.50;99.90;;;;;;5019957;28;20034;-68
2023/08/16 08:55:20;;;;;;;6.05;4.63;;;22.40;99.90;;;;;;5018943;28;20033;-68
2023/08/16 08:57:50;;;;;;;6.50;4.55;;;22.40;99.90;;;;;;5018769;28;20029;-68
2023/08/16 09:00:20;;;;;;;7.68;5.18;;;22.50;99.90;;;;;;5018775;28;20080;-67
2023/08/16 09:02:50;;;;;;;8.68;4.55;;;22.60;99.90;;;;;;5018735;28;20033;-68
2023/08/16 09:05:18;;;;;;;8.55;5.47;;;22.60;99.90;;;;;;5018581;28;20026;-68
2023/08/16 09:07:44;;;;;;;13.10;5.53;;;22.60;99.90;;;;;;5018933;28;20031;-68
2023/08/16 09:10:11;;;;;;;9.85;4.97;;;22.60;99.90;;;;;;5018679;28;20050;-68
2023/08/16 09:12:37;;;;;;;8.52;5.32;;;22.60;99.90;;;;;;5019281;28;20030;-68
2023/08/16 09:15:04;;;;;;;5.90;4.60;;;22.60;99.90;;;;;;5019472;28;20030;-68
2023/08/16 09:17:29;;;;;;;7.13;4.90;;;22.50;99.90;;;;;;5019259;28;20022;-68
2023/08/16 09:19:58;;;;;;;8.05;4.45;;;22.50;99.90;;;;;;5018386;28;20026;-68
2023/08/16 09:22:24;;;;;;;5.88;4.35;;;22.50;99.90;;;;;;5018425;28;20033;-68
2023/08/16 09:24:55;;;;;;;8.88;5.70;;;22.50;99.90;;;;;;5019127;28;20044;-68
2023/08/16 09:27:22;;;;;;;7.20;4.88;;;22.50;99.90;;;;;;5019190;28;20032;-68
2023/08/16 09:29:48;;;;;;;8.48;5.00;;;22.50;99.90;;;;;;5018255;28;20121;-67
2023/08/16 09:32:14;;;;;;;7.10;5.10;;;22.50;99.90;;;;;;5018193;28;20061;-68
2023/08/16 09:34:39;;;;;;;6.57;4.88;;;22.50;99.90;;;;;;5018155;28;20034;-68
2023/08/16 09:37:05;;;;;;;8.10;5.25;;;22.40;99.90;;;;;;5018001;28;20022;-68
2023/08/16 09:39:30;;;;;;;11.88;6.38;;;22.40;99.90;;;;;;5018125;28;20037;-68
2023/08/16 09:41:56;;;;;;;6.75;5.25;;;22.40;99.90;;;;;;5018293;28;20084;-67
2023/08/16 09:44:27;;;;;;;10.15;5.97;;;22.30;99.90;;;;;;5019093;28;20025;-68
2023/08/16 09:46:53;;;;;;;10.75;6.70;;;22.30;99.90;;;;;;5018822;28;20029;-68
2023/08/16 09:49:22;;;;;;;10.93;6.80;;;22.30;99.90;;;;;;5017732;28;20108;-68
2023/08/16 09:51:48;;;;;;;12.82;7.50;;;22.30;99.90;;;;;;5018704;28;20040;-68
2023/08/16 09:54:16;;;;;;;13.57;7.35;;;22.30;99.90;;;;;;5017724;28;20022;-68
2023/08/16 09:56:43;;;;;;;13.02;7.28;;;22.30;99.90;;;;;;5018954;28;20024;-68
2023/08/16 09:59:11;;;;;;;8.98;6.15;;;22.20;99.90;;;;;;5017583;28;20049;-68
2023/08/16 10:01:37;;;;;;;11.85;7.40;;;22.20;99.90;;;;;;5017773;28;20045;-68
2023/08/16 10:04:03;;;;;;;13.38;7.95;;;22.30;99.90;;;;;;5017688;28;20026;-68
2023/08/16 10:06:32;;;;;;;14.27;7.40;;;22.30;99.90;;;;;;5018461;28;20041;-68
2023/08/16 10:08:59;;;;;;;11.18;6.95;;;22.30;99.90;;;;;;5017571;28;20022;-68
2023/08/16 10:11:24;;;;;;;12.48;7.60;;;22.20;99.90;;;;;;5018357;28;20056;-68
2023/08/16 10:13:50;;;;;;;10.63;8.02;;;22.30;99.90;;;;;;5018090;28;20030;-68
2023/08/16 10:16:18;;;;;;;10.23;6.15;;;22.30;99.90;;;;;;5017374;28;20017;-68
2023/08/16 10:18:46;;;;;;;9.95;6.22;;;22.40;99.90;;;;;;5017704;28;20030;-68
2023/08/16 10:21:16;;;;;;;16.70;6.35;;;22.40;99.90;;;;;;5017246;28;20022;-68
2023/08/16 10:23:42;;;;;;;9.63;6.18;;;22.40;99.90;;;;;;5018534;28;20097;-68
2023/08/16 10:26:16;;;;;;;7.70;5.60;;;22.40;99.90;;;;;;5017297;28;20084;-68
2023/08/16 10:28:46;;;;;;;8.73;6.05;;;22.50;99.90;;;;;;5017864;28;20026;-67
2023/08/16 10:31:14;;;;;;;7.15;5.30;;;22.60;99.90;;;;;;5017245;28;20025;-68
2023/08/16 10:33:44;;;;;;;9.05;5.53;;;22.50;99.90;;;;;;5017068;28;20026;-68
2023/08/16 10:36:11;;;;;;;7.32;5.07;;;22.60;99.90;;;;;;5017192;28;20052;-68
2023/08/16 10:38:38;;;;;;;9.90;5.72;;;22.50;99.90;;;;;;5017100;28;20040;-68
2023/08/16 10:41:13;;;;;;;7.90;5.30;;;22.60;99.90;;;;;;5017501;28;20026;-68
2023/08/16 10:43:46;;;;;;;10.63;5.60;;;22.60;99.90;;;;;;5017114;28;20026;-68
2023/08/16 10:46:12;;;;;;;9.32;6.45;;;22.70;99.90;;;;;;5018405;28;20045;-68
2023/08/16 10:48:38;;;;;;;5.13;4.63;;;22.90;99.90;;;;;;5017313;28;20022;-68
2023/08/16 10:51:06;;;;;;;6.00;4.00;;;23.00;99.90;;;;;;5017337;28;20025;-68
2023/08/16 10:53:33;;;;;;;5.15;3.60;;;23.10;99.90;;;;;;5017605;28;20022;-68
2023/08/16 10:56:04;;;;;;;4.88;4.38;;;23.10;99.90;;;;;;5017578;28;20026;-68
2023/08/16 10:58:29;;;;;;;5.57;4.32;;;23.30;99.90;;;;;;5017489;28;20037;-69
2023/08/16 11:01:04;;;;;;;4.55;3.63;;;23.30;99.90;;;;;;5016613;28;20030;-69
2023/08/16 11:03:31;;;;;;;5.60;3.42;;;23.30;99.90;;;;;;5017519;28;20029;-69
2023/08/16 11:06:00;;;;;;;4.82;3.30;;;23.20;99.90;;;;;;5017126;28;20063;-69
2023/08/16 11:08:29;;;;;;;4.45;3.83;;;23.40;99.90;;;;;;5017717;28;20014;-69
2023/08/16 11:10:55;;;;;;;4.88;3.00;;;24.00;99.90;;;;;;5016646;28;20037;-69
2023/08/16 11:13:20;;;;;;;5.38;3.50;;;24.50;99.90;;;;;;5016672;28;20021;-69
2023/08/16 11:15:47;;;;;;;6.65;3.10;;;24.80;99.90;;;;;;5016488;28;20037;-69
2023/08/16 11:18:13;;;;;;;3.83;3.42;;;25.20;99.90;;;;;;5016384;28;20033;-69
2023/08/16 11:20:40;;;;;;;3.38;3.00;;;25.60;99.90;;;;;;5017218;28;20081;-69
2023/08/16 11:23:06;;;;;;;4.05;3.28;;;25.70;99.90;;;;;;5016463;28;20026;-69
2023/08/16 11:25:33;;;;;;;3.70;3.10;;;25.60;99.90;;;;;;5016077;28;20026;-69
2023/08/16 11:28:03;;;;;;;4.40;3.40;;;25.50;99.90;;;;;;5016085;28;20029;-69
2023/08/16 11:30:30;;;;;;;3.55;2.90;;;25.40;99.90;;;;;;5016241;28;20022;-69
2023/08/16 11:32:56;;;;;;;3.55;2.80;;;25.50;99.90;;;;;;5017394;28;20046;-69
2023/08/16 11:35:23;;;;;;;5.93;2.83;;;25.50;99.90;;;;;;5016333;28;20057;-69
2023/08/16 11:37:49;;;;;;;3.88;2.70;;;25.60;99.90;;;;;;5016131;28;20061;-69
2023/08/16 11:40:15;;;;;;;3.92;2.72;;;25.80;99.90;;;;;;5017048;28;20022;-69
2023/08/16 11:42:40;;;;;;;3.75;2.33;;;26.20;99.90;;;;;;5016299;28;20045;-69
2023/08/16 11:45:24;;;;;;;3.10;2.53;;;26.60;99.90;;;;;;5017192;28;20030;-69
2023/08/16 11:47:51;;;;;;;3.38;2.60;;;26.90;99.90;;;;;;5016010;28;20025;-68
2023/08/16 11:50:17;;;;;;;5.93;2.65;;;27.20;99.90;;;;;;5016939;28;20160;-68
2023/08/16 11:52:42;;;;;;;3.35;2.63;;;27.10;99.90;;;;;;5017077;28;20025;-68
2023/08/16 11:55:09;;;;;;;3.30;2.75;;;26.90;99.90;;;;;;5016146;28;20022;-68
2023/08/16 11:57:47;;;;;;;3.05;2.28;;;26.90;99.90;;;;;;5016956;28;20018;-68
2023/08/16 12:00:15;;;;;;;2.70;2.50;;;27.30;99.90;;;;;;5016383;28;20025;-68
2023/08/16 12:02:43;;;;;;;2.88;2.63;;;27.70;99.90;;;;;;5016913;28;20030;-68
2023/08/16 12:05:10;;;;;;;4.00;2.80;;;27.90;99.90;;;;;;5016957;28;20021;-68
2023/08/16 12:07:48;;;;;;;3.13;2.50;;;27.90;99.90;;;;;;5016766;28;20104;-68
2023/08/16 12:10:22;;;;;;;3.25;2.22;;;28.00;99.90;;;;;;5016057;28;20022;-68
2023/08/16 12:12:49;;;;;;;3.95;2.35;;;28.50;99.90;;;;;;5016006;28;20030;-69
2023/08/16 12:15:14;;;;;;;3.40;2.25;;;28.80;99.90;;;;;;5016677;28;20022;-69
2023/08/16 12:17:40;;;;;;;2.88;2.22;;;28.90;99.90;;;;;;5015806;28;20022;-69
2023/08/16 12:20:06;;;;;;;3.38;2.22;;;28.80;99.90;;;;;;5015929;28;20021;-68
2023/08/16 12:22:31;;;;;;;3.90;2.25;;;28.70;99.90;;;;;;5015600;28;20029;-68
2023/08/16 12:24:57;;;;;;;5.22;2.53;;;28.80;99.90;;;;;;5015909;28;20026;-69
2023/08/16 12:27:22;;;;;;;3.30;2.40;;;29.50;99.90;;;;;;5015658;28;20092;-69
2023/08/16 12:29:48;;;;;;;2.63;2.17;;;29.70;99.90;;;;;;5015882;28;20029;-69
2023/08/16 12:32:13;;;;;;;2.17;1.98;;;29.90;99.90;;;;;;5015779;28;20112;-68
2023/08/16 12:34:39;;;;;;;8.43;2.35;;;30.00;99.90;;;;;;5015901;28;20022;-68
2023/08/16 12:37:07;;;;;;;2.92;2.13;;;30.20;99.90;;;;;;5016062;28;20113;-68